sensor_id;sensor_type;location;lat;lon;timestamp;P1;durP1;ratioP1;P2;durP2;ratioP2
2710;SDS011;20721;47.402;8.550;2022-09-16T00:00:20;4.60;;;4.60;;
2710;SDS011;20721;47.402;8.550;2022-09-16T00:01:22;4.56;;;4.56;;
2710;SDS011;20721;47.402;8.550;2022-09-16T00:02:20;4.09;;;4.09;;
2710;SDS011;20721;47.402;8.550;2022-09-16T00:03:20;4.30;;;4.30;;
2710;SDS011;20721;47.402;8.550;2022-09-16T00:04:19;4.07;;;4.07;;
2710;SDS011;20721;47.402;8.550;2022-09-16T00:05:20;4.07;;;4.07;;
2710;SDS011;20721;47.402;8.550;2022-09-16T00:06:29;4.18;;;4.18;;
2710;SDS011;20721;47.402;8.550;2022-09-16T00:07:20;3.86;;;3.86;;
2710;SDS011;20721;47.402;8.550;2022-09-16T00:08:20;4.30;;;4.30;;
2710;SDS011;20721;47.402;8.550;2022-09-16T00:09:20;3.93;;;3.93;;
2710;SDS011;20721;47.402;8.550;2022-09-16T00:10:22;4.39;;;4.39;;
2710;SDS011;20721;47.402;8.550;2022-09-16T00:11:20;4.64;;;4.64;;
2710;SDS011;20721;47.402;8.550;2022-09-16T00:14:20;4.95;;;4.95;;
2710;SDS011;20721;47.402;8.550;2022-09-16T00:15:20;3.83;;;3.83;;
2710;SDS011;20721;47.402;8.550;2022-09-16T00:16:23;3.80;;;3.80;;
2710;SDS011;20721;47.402;8.550;2022-09-16T00:17:20;3.99;;;3.99;;
2710;SDS011;20721;47.402;8.550;2022-09-16T00:18:21;4.18;;;4.18;;
2710;SDS011;20721;47.402;8.550;2022-09-16T00:20:20;4.04;;;4.04;;
2710;SDS011;20721;47.402;8.550;2022-09-16T00:21:20;4.05;;;4.05;;
2710;SDS011;20721;47.402;8.550;2022-09-16T00:22:20;4.29;;;4.29;;
2710;SDS011;20721;47.402;8.550;2022-09-16T00:23:20;4.24;;;4.24;;
2710;SDS011;20721;47.402;8.550;2022-09-16T00:25:20;4.03;;;4.03;;
2710;SDS011;20721;47.402;8.550;2022-09-16T00:27:20;4.28;;;4.28;;
2710;SDS011;20721;47.402;8.550;2022-09-16T00:28:20;4.20;;;4.20;;
2710;SDS011;20721;47.402;8.550;2022-09-16T00:29:20;4.37;;;4.37;;
2710;SDS011;20721;47.402;8.550;2022-09-16T00:30:20;4.34;;;4.34;;
2710;SDS011;20721;47.402;8.550;2022-09-16T00:31:20;4.39;;;4.39;;
2710;SDS011;20721;47.402;8.550;2022-09-16T00:32:22;4.16;;;4.16;;
2710;SDS011;20721;47.402;8.550;2022-09-16T00:33:20;4.73;;;4.73;;
2710;SDS011;20721;47.402;8.550;2022-09-16T00:34:20;3.96;;;3.96;;
2710;SDS011;20721;47.402;8.550;2022-09-16T00:35:20;3.91;;;3.91;;
2710;SDS011;20721;47.402;8.550;2022-09-16T00:36:20;3.58;;;3.58;;
2710;SDS011;20721;47.402;8.550;2022-09-16T00:37:20;3.52;;;3.52;;
2710;SDS011;20721;47.402;8.550;2022-09-16T00:38:21;4.54;;;4.54;;
2710;SDS011;20721;47.402;8.550;2022-09-16T00:39:20;4.70;;;4.70;;
2710;SDS011;20721;47.402;8.550;2022-09-16T00:40:20;4.25;;;4.25;;
2710;SDS011;20721;47.402;8.550;2022-09-16T00:41:27;4.50;;;4.50;;
2710;SDS011;20721;47.402;8.550;2022-09-16T00:42:20;4.53;;;4.53;;
2710;SDS011;20721;47.402;8.550;2022-09-16T00:43:22;4.29;;;4.29;;
2710;SDS011;20721;47.402;8.550;2022-09-16T00:45:24;4.23;;;4.23;;
2710;SDS011;20721;47.402;8.550;2022-09-16T00:46:22;4.27;;;4.27;;
2710;SDS011;20721;47.402;8.550;2022-09-16T00:47:22;4.14;;;4.14;;
2710;SDS011;20721;47.402;8.550;2022-09-16T00:48:25;4.25;;;4.25;;
2710;SDS011;20721;47.402;8.550;2022-09-16T00:49:30;4.85;;;4.85;;
2710;SDS011;20721;47.402;8.550;2022-09-16T00:51:21;4.36;;;4.36;;
2710;SDS011;20721;47.402;8.550;2022-09-16T00:52:20;5.00;;;5.00;;
2710;SDS011;20721;47.402;8.550;2022-09-16T00:53:24;4.86;;;4.86;;
2710;SDS011;20721;47.402;8.550;2022-09-16T00:54:20;4.75;;;4.75;;
2710;SDS011;20721;47.402;8.550;2022-09-16T00:55:23;4.66;;;4.66;;
2710;SDS011;20721;47.402;8.550;2022-09-16T00:56:22;5.07;;;5.07;;
2710;SDS011;20721;47.402;8.550;2022-09-16T00:57:21;4.74;;;4.74;;
2710;SDS011;20721;47.402;8.550;2022-09-16T00:59:25;5.21;;;5.21;;
2710;SDS011;20721;47.402;8.550;2022-09-16T01:00:22;4.48;;;4.48;;
2710;SDS011;20721;47.402;8.550;2022-09-16T01:01:20;4.08;;;4.08;;
2710;SDS011;20721;47.402;8.550;2022-09-16T01:02:21;5.03;;;5.03;;
2710;SDS011;20721;47.402;8.550;2022-09-16T01:03:20;4.35;;;4.35;;
2710;SDS011;20721;47.402;8.550;2022-09-16T01:04:31;3.93;;;3.93;;
2710;SDS011;20721;47.402;8.550;2022-09-16T01:05:23;4.71;;;4.71;;
2710;SDS011;20721;47.402;8.550;2022-09-16T01:06:20;4.16;;;4.16;;
2710;SDS011;20721;47.402;8.550;2022-09-16T01:07:24;4.42;;;4.42;;
2710;SDS011;20721;47.402;8.550;2022-09-16T01:08:20;4.38;;;4.38;;
2710;SDS011;20721;47.402;8.550;2022-09-16T01:09:22;4.10;;;4.10;;
2710;SDS011;20721;47.402;8.550;2022-09-16T01:10:23;4.61;;;4.61;;
2710;SDS011;20721;47.402;8.550;2022-09-16T01:11:20;4.44;;;4.44;;
2710;SDS011;20721;47.402;8.550;2022-09-16T01:12:20;4.07;;;4.07;;
2710;SDS011;20721;47.402;8.550;2022-09-16T01:13:22;4.77;;;4.77;;
2710;SDS011;20721;47.402;8.550;2022-09-16T01:14:32;4.52;;;4.52;;
2710;SDS011;20721;47.402;8.550;2022-09-16T01:15:22;4.28;;;4.28;;
2710;SDS011;20721;47.402;8.550;2022-09-16T01:16:28;5.05;;;5.05;;
2710;SDS011;20721;47.402;8.550;2022-09-16T01:19:41;4.90;;;4.90;;
2710;SDS011;20721;47.402;8.550;2022-09-16T01:21:24;4.80;;;4.80;;
2710;SDS011;20721;47.402;8.550;2022-09-16T01:24:42;5.71;;;5.71;;
2710;SDS011;20721;47.402;8.550;2022-09-16T01:25:36;4.84;;;4.84;;
2710;SDS011;20721;47.402;8.550;2022-09-16T01:28:28;5.39;;;5.39;;
2710;SDS011;20721;47.402;8.550;2022-09-16T01:31:36;5.21;;;5.21;;
2710;SDS011;20721;47.402;8.550;2022-09-16T01:32:32;5.32;;;5.32;;
2710;SDS011;20721;47.402;8.550;2022-09-16T01:33:32;5.23;;;5.23;;
2710;SDS011;20721;47.402;8.550;2022-09-16T01:34:25;5.22;;;5.22;;
2710;SDS011;20721;47.402;8.550;2022-09-16T01:35:34;5.48;;;5.48;;
2710;SDS011;20721;47.402;8.550;2022-09-16T01:37:28;4.85;;;4.85;;
2710;SDS011;20721;47.402;8.550;2022-09-16T01:38:39;5.59;;;5.59;;
2710;SDS011;20721;47.402;8.550;2022-09-16T01:39:35;5.11;;;5.11;;
2710;SDS011;20721;47.402;8.550;2022-09-16T01:43:34;4.64;;;4.64;;
2710;SDS011;20721;47.402;8.550;2022-09-16T01:46:41;4.95;;;4.95;;
2710;SDS011;20721;47.402;8.550;2022-09-16T01:49:40;4.75;;;4.75;;
2710;SDS011;20721;47.402;8.550;2022-09-16T01:51:29;5.50;;;5.50;;
2710;SDS011;20721;47.402;8.550;2022-09-16T01:53:26;5.25;;;5.25;;
2710;SDS011;20721;47.402;8.550;2022-09-16T01:54:31;4.93;;;4.93;;
2710;SDS011;20721;47.402;8.550;2022-09-16T01:55:35;5.37;;;5.37;;
2710;SDS011;20721;47.402;8.550;2022-09-16T01:56:35;5.60;;;5.60;;
2710;SDS011;20721;47.402;8.550;2022-09-16T01:58:26;5.24;;;5.24;;
2710;SDS011;20721;47.402;8.550;2022-09-16T02:00:21;4.97;;;4.97;;
2710;SDS011;20721;47.402;8.550;2022-09-16T02:01:27;5.36;;;5.36;;
2710;SDS011;20721;47.402;8.550;2022-09-16T02:02:31;5.07;;;5.07;;
2710;SDS011;20721;47.402;8.550;2022-09-16T02:03:26;4.68;;;4.68;;
2710;SDS011;20721;47.402;8.550;2022-09-16T02:04:26;5.44;;;5.44;;
2710;SDS011;20721;47.402;8.550;2022-09-16T02:05:28;5.21;;;5.21;;
2710;SDS011;20721;47.402;8.550;2022-09-16T02:06:24;5.39;;;5.39;;
2710;SDS011;20721;47.402;8.550;2022-09-16T02:07:24;5.41;;;5.41;;
2710;SDS011;20721;47.402;8.550;2022-09-16T02:08:25;5.26;;;5.26;;
2710;SDS011;20721;47.402;8.550;2022-09-16T02:09:26;5.48;;;5.48;;
2710;SDS011;20721;47.402;8.550;2022-09-16T02:10:31;5.30;;;5.30;;
2710;SDS011;20721;47.402;8.550;2022-09-16T02:11:23;5.62;;;5.62;;
2710;SDS011;20721;47.402;8.550;2022-09-16T02:12:24;5.44;;;5.44;;
2710;SDS011;20721;47.402;8.550;2022-09-16T02:13:30;5.62;;;5.62;;
2710;SDS011;20721;47.402;8.550;2022-09-16T02:14:27;5.93;;;5.93;;
2710;SDS011;20721;47.402;8.550;2022-09-16T02:15:22;5.86;;;5.86;;
2710;SDS011;20721;47.402;8.550;2022-09-16T02:16:27;5.14;;;5.14;;
2710;SDS011;20721;47.402;8.550;2022-09-16T02:17:23;5.91;;;5.91;;
2710;SDS011;20721;47.402;8.550;2022-09-16T02:18:24;5.64;;;5.64;;
2710;SDS011;20721;47.402;8.550;2022-09-16T02:19:28;5.16;;;5.16;;
2710;SDS011;20721;47.402;8.550;2022-09-16T02:20:24;5.64;;;5.64;;
2710;SDS011;20721;47.402;8.550;2022-09-16T02:21:24;5.39;;;5.39;;
2710;SDS011;20721;47.402;8.550;2022-09-16T02:22:27;5.65;;;5.65;;
2710;SDS011;20721;47.402;8.550;2022-09-16T02:23:26;6.49;;;6.49;;
2710;SDS011;20721;47.402;8.550;2022-09-16T02:24:22;6.07;;;6.07;;
2710;SDS011;20721;47.402;8.550;2022-09-16T02:25:23;4.93;;;4.93;;
2710;SDS011;20721;47.402;8.550;2022-09-16T02:26:28;5.80;;;5.80;;
2710;SDS011;20721;47.402;8.550;2022-09-16T02:27:23;5.64;;;5.64;;
2710;SDS011;20721;47.402;8.550;2022-09-16T02:28:26;5.72;;;5.72;;
2710;SDS011;20721;47.402;8.550;2022-09-16T02:29:24;5.35;;;5.35;;
2710;SDS011;20721;47.402;8.550;2022-09-16T02:30:23;5.88;;;5.88;;
2710;SDS011;20721;47.402;8.550;2022-09-16T02:31:24;4.76;;;4.76;;
2710;SDS011;20721;47.402;8.550;2022-09-16T02:32:21;5.75;;;5.75;;
2710;SDS011;20721;47.402;8.550;2022-09-16T02:33:22;5.77;;;5.77;;
2710;SDS011;20721;47.402;8.550;2022-09-16T02:34:25;5.46;;;5.46;;
2710;SDS011;20721;47.402;8.550;2022-09-16T02:35:24;5.35;;;5.35;;
2710;SDS011;20721;47.402;8.550;2022-09-16T02:36:23;5.21;;;5.21;;
2710;SDS011;20721;47.402;8.550;2022-09-16T02:37:30;5.25;;;5.25;;
2710;SDS011;20721;47.402;8.550;2022-09-16T02:38:24;4.37;;;4.37;;
2710;SDS011;20721;47.402;8.550;2022-09-16T02:39:25;5.28;;;5.28;;
2710;SDS011;20721;47.402;8.550;2022-09-16T02:40:26;4.82;;;4.82;;
2710;SDS011;20721;47.402;8.550;2022-09-16T02:41:24;5.27;;;5.27;;
2710;SDS011;20721;47.402;8.550;2022-09-16T02:42:20;4.62;;;4.62;;
2710;SDS011;20721;47.402;8.550;2022-09-16T02:43:20;4.56;;;4.56;;
2710;SDS011;20721;47.402;8.550;2022-09-16T02:44:20;5.02;;;5.02;;
2710;SDS011;20721;47.402;8.550;2022-09-16T02:45:21;5.10;;;5.10;;
2710;SDS011;20721;47.402;8.550;2022-09-16T02:50:31;5.42;;;5.42;;
2710;SDS011;20721;47.402;8.550;2022-09-16T02:52:23;4.64;;;4.64;;
2710;SDS011;20721;47.402;8.550;2022-09-16T02:56:28;4.70;;;4.70;;
2710;SDS011;20721;47.402;8.550;2022-09-16T02:57:20;5.52;;;5.52;;
2710;SDS011;20721;47.402;8.550;2022-09-16T02:58:20;5.61;;;5.61;;
2710;SDS011;20721;47.402;8.550;2022-09-16T03:00:22;4.82;;;4.82;;
2710;SDS011;20721;47.402;8.550;2022-09-16T03:01:23;5.05;;;5.05;;
2710;SDS011;20721;47.402;8.550;2022-09-16T03:02:21;5.55;;;5.55;;
2710;SDS011;20721;47.402;8.550;2022-09-16T03:03:20;5.23;;;5.23;;
2710;SDS011;20721;47.402;8.550;2022-09-16T03:04:21;5.47;;;5.47;;
2710;SDS011;20721;47.402;8.550;2022-09-16T03:05:25;4.92;;;4.92;;
2710;SDS011;20721;47.402;8.550;2022-09-16T03:06:24;5.73;;;5.73;;
2710;SDS011;20721;47.402;8.550;2022-09-16T03:07:21;5.30;;;5.30;;
2710;SDS011;20721;47.402;8.550;2022-09-16T03:08:20;5.65;;;5.65;;
2710;SDS011;20721;47.402;8.550;2022-09-16T03:09:22;5.87;;;5.87;;
2710;SDS011;20721;47.402;8.550;2022-09-16T03:10:24;6.00;;;6.00;;
2710;SDS011;20721;47.402;8.550;2022-09-16T03:13:27;5.51;;;5.51;;
2710;SDS011;20721;47.402;8.550;2022-09-16T03:17:50;5.72;;;5.72;;
2710;SDS011;20721;47.402;8.550;2022-09-16T03:18:26;5.76;;;5.76;;
2710;SDS011;20721;47.402;8.550;2022-09-16T03:19:35;5.67;;;5.67;;
2710;SDS011;20721;47.402;8.550;2022-09-16T03:24:33;6.19;;;6.19;;
2710;SDS011;20721;47.402;8.550;2022-09-16T03:25:31;5.84;;;5.84;;
2710;SDS011;20721;47.402;8.550;2022-09-16T03:27:26;5.28;;;5.28;;
2710;SDS011;20721;47.402;8.550;2022-09-16T03:29:24;6.06;;;6.06;;
2710;SDS011;20721;47.402;8.550;2022-09-16T03:31:27;6.22;;;6.22;;
2710;SDS011;20721;47.402;8.550;2022-09-16T03:32:31;4.84;;;4.84;;
2710;SDS011;20721;47.402;8.550;2022-09-16T03:34:29;5.01;;;5.01;;
2710;SDS011;20721;47.402;8.550;2022-09-16T03:35:30;6.05;;;6.05;;
2710;SDS011;20721;47.402;8.550;2022-09-16T03:36:24;5.12;;;5.12;;
2710;SDS011;20721;47.402;8.550;2022-09-16T03:37:26;5.63;;;5.63;;
2710;SDS011;20721;47.402;8.550;2022-09-16T03:41:22;6.00;;;6.00;;
2710;SDS011;20721;47.402;8.550;2022-09-16T03:44:20;6.33;;;6.33;;
2710;SDS011;20721;47.402;8.550;2022-09-16T03:45:25;5.56;;;5.56;;
2710;SDS011;20721;47.402;8.550;2022-09-16T03:46:20;5.97;;;5.97;;
2710;SDS011;20721;47.402;8.550;2022-09-16T03:47:20;5.63;;;5.63;;
2710;SDS011;20721;47.402;8.550;2022-09-16T03:48:21;5.86;;;5.86;;
2710;SDS011;20721;47.402;8.550;2022-09-16T03:49:21;6.34;;;6.34;;
2710;SDS011;20721;47.402;8.550;2022-09-16T03:50:21;5.72;;;5.72;;
2710;SDS011;20721;47.402;8.550;2022-09-16T03:51:21;5.76;;;5.76;;
2710;SDS011;20721;47.402;8.550;2022-09-16T03:52:20;5.69;;;5.69;;
2710;SDS011;20721;47.402;8.550;2022-09-16T03:53:20;6.14;;;6.14;;
2710;SDS011;20721;47.402;8.550;2022-09-16T03:55:20;6.17;;;6.17;;
2710;SDS011;20721;47.402;8.550;2022-09-16T03:56:21;5.99;;;5.99;;
2710;SDS011;20721;47.402;8.550;2022-09-16T03:57:20;6.21;;;6.21;;
2710;SDS011;20721;47.402;8.550;2022-09-16T03:58:20;5.90;;;5.90;;
2710;SDS011;20721;47.402;8.550;2022-09-16T03:59:20;6.09;;;6.09;;
2710;SDS011;20721;47.402;8.550;2022-09-16T04:00:21;6.99;;;6.99;;
2710;SDS011;20721;47.402;8.550;2022-09-16T04:01:20;6.38;;;6.38;;
2710;SDS011;20721;47.402;8.550;2022-09-16T04:02:20;6.85;;;6.85;;
2710;SDS011;20721;47.402;8.550;2022-09-16T04:03:20;6.20;;;6.20;;
2710;SDS011;20721;47.402;8.550;2022-09-16T04:04:21;7.16;;;7.16;;
2710;SDS011;20721;47.402;8.550;2022-09-16T04:05:20;6.78;;;6.78;;
2710;SDS011;20721;47.402;8.550;2022-09-16T04:07:20;6.29;;;6.29;;
2710;SDS011;20721;47.402;8.550;2022-09-16T04:09:21;6.57;;;6.57;;
2710;SDS011;20721;47.402;8.550;2022-09-16T04:10:21;6.58;;;6.58;;
2710;SDS011;20721;47.402;8.550;2022-09-16T04:11:20;6.13;;;6.13;;
2710;SDS011;20721;47.402;8.550;2022-09-16T04:12:20;6.71;;;6.71;;
2710;SDS011;20721;47.402;8.550;2022-09-16T04:13:20;6.74;;;6.74;;
2710;SDS011;20721;47.402;8.550;2022-09-16T04:14:23;6.51;;;6.51;;
2710;SDS011;20721;47.402;8.550;2022-09-16T04:15:21;6.41;;;6.41;;
2710;SDS011;20721;47.402;8.550;2022-09-16T04:16:20;6.61;;;6.61;;
2710;SDS011;20721;47.402;8.550;2022-09-16T04:17:20;6.76;;;6.76;;
2710;SDS011;20721;47.402;8.550;2022-09-16T04:18:20;6.64;;;6.64;;
2710;SDS011;20721;47.402;8.550;2022-09-16T04:19:26;6.64;;;6.64;;
2710;SDS011;20721;47.402;8.550;2022-09-16T04:20:22;5.91;;;5.91;;
2710;SDS011;20721;47.402;8.550;2022-09-16T04:21:20;6.30;;;6.30;;
2710;SDS011;20721;47.402;8.550;2022-09-16T04:22:20;6.89;;;6.89;;
2710;SDS011;20721;47.402;8.550;2022-09-16T04:23:22;6.27;;;6.27;;
2710;SDS011;20721;47.402;8.550;2022-09-16T04:24:23;6.51;;;6.51;;
2710;SDS011;20721;47.402;8.550;2022-09-16T04:25:20;6.31;;;6.31;;
2710;SDS011;20721;47.402;8.550;2022-09-16T04:26:20;6.63;;;6.63;;
2710;SDS011;20721;47.402;8.550;2022-09-16T04:27:20;6.70;;;6.70;;
2710;SDS011;20721;47.402;8.550;2022-09-16T04:29:21;6.33;;;6.33;;
2710;SDS011;20721;47.402;8.550;2022-09-16T04:30:21;6.24;;;6.24;;
2710;SDS011;20721;47.402;8.550;2022-09-16T04:31:21;6.12;;;6.12;;
2710;SDS011;20721;47.402;8.550;2022-09-16T04:32:20;6.35;;;6.35;;
2710;SDS011;20721;47.402;8.550;2022-09-16T04:33:20;6.64;;;6.64;;
2710;SDS011;20721;47.402;8.550;2022-09-16T04:34:21;6.62;;;6.62;;
2710;SDS011;20721;47.402;8.550;2022-09-16T04:35:21;6.34;;;6.34;;
2710;SDS011;20721;47.402;8.550;2022-09-16T04:36:23;6.23;;;6.23;;
2710;SDS011;20721;47.402;8.550;2022-09-16T04:38:20;6.59;;;6.59;;
2710;SDS011;20721;47.402;8.550;2022-09-16T04:39:21;6.87;;;6.87;;
2710;SDS011;20721;47.402;8.550;2022-09-16T04:40:21;6.42;;;6.42;;
2710;SDS011;20721;47.402;8.550;2022-09-16T04:41:22;6.16;;;6.16;;
2710;SDS011;20721;47.402;8.550;2022-09-16T04:42:21;6.35;;;6.35;;
2710;SDS011;20721;47.402;8.550;2022-09-16T04:45:20;6.74;;;6.74;;
2710;SDS011;20721;47.402;8.550;2022-09-16T04:47:20;6.80;;;6.80;;
2710;SDS011;20721;47.402;8.550;2022-09-16T04:48:20;6.29;;;6.29;;
2710;SDS011;20721;47.402;8.550;2022-09-16T04:49:21;6.91;;;6.91;;
2710;SDS011;20721;47.402;8.550;2022-09-16T04:50:21;6.67;;;6.67;;
2710;SDS011;20721;47.402;8.550;2022-09-16T04:51:23;6.23;;;6.23;;
2710;SDS011;20721;47.402;8.550;2022-09-16T04:52:20;6.93;;;6.93;;
2710;SDS011;20721;47.402;8.550;2022-09-16T04:53:20;6.95;;;6.95;;
2710;SDS011;20721;47.402;8.550;2022-09-16T04:54:21;5.97;;;5.97;;
2710;SDS011;20721;47.402;8.550;2022-09-16T04:55:20;6.04;;;6.04;;
2710;SDS011;20721;47.402;8.550;2022-09-16T04:56:26;7.18;;;7.18;;
2710;SDS011;20721;47.402;8.550;2022-09-16T04:57:23;6.46;;;6.46;;
2710;SDS011;20721;47.402;8.550;2022-09-16T04:58:21;6.54;;;6.54;;
2710;SDS011;20721;47.402;8.550;2022-09-16T05:00:21;6.97;;;6.97;;
2710;SDS011;20721;47.402;8.550;2022-09-16T05:01:24;7.30;;;7.30;;
2710;SDS011;20721;47.402;8.550;2022-09-16T05:02:20;7.86;;;7.86;;
2710;SDS011;20721;47.402;8.550;2022-09-16T05:03:20;7.43;;;7.43;;
2710;SDS011;20721;47.402;8.550;2022-09-16T05:04:20;7.62;;;7.62;;
2710;SDS011;20721;47.402;8.550;2022-09-16T05:05:21;6.89;;;6.89;;
2710;SDS011;20721;47.402;8.550;2022-09-16T05:06:23;7.19;;;7.19;;
2710;SDS011;20721;47.402;8.550;2022-09-16T05:07:20;6.34;;;6.34;;
2710;SDS011;20721;47.402;8.550;2022-09-16T05:08:20;7.00;;;7.00;;
2710;SDS011;20721;47.402;8.550;2022-09-16T05:09:21;6.70;;;6.70;;
2710;SDS011;20721;47.402;8.550;2022-09-16T05:10:21;7.21;;;7.21;;
2710;SDS011;20721;47.402;8.550;2022-09-16T05:11:23;6.59;;;6.59;;
2710;SDS011;20721;47.402;8.550;2022-09-16T05:12:20;6.33;;;6.33;;
2710;SDS011;20721;47.402;8.550;2022-09-16T05:13:21;7.39;;;7.39;;
2710;SDS011;20721;47.402;8.550;2022-09-16T05:14:23;6.91;;;6.91;;
2710;SDS011;20721;47.402;8.550;2022-09-16T05:15:20;6.90;;;6.90;;
2710;SDS011;20721;47.402;8.550;2022-09-16T05:16:22;6.91;;;6.91;;
2710;SDS011;20721;47.402;8.550;2022-09-16T05:17:20;7.17;;;7.17;;
2710;SDS011;20721;47.402;8.550;2022-09-16T05:18:20;7.08;;;7.08;;
2710;SDS011;20721;47.402;8.550;2022-09-16T05:19:21;7.78;;;7.78;;
2710;SDS011;20721;47.402;8.550;2022-09-16T05:20:21;7.41;;;7.41;;
2710;SDS011;20721;47.402;8.550;2022-09-16T05:21:23;7.94;;;7.94;;
2710;SDS011;20721;47.402;8.550;2022-09-16T05:22:20;7.60;;;7.60;;
2710;SDS011;20721;47.402;8.550;2022-09-16T05:23:21;7.32;;;7.32;;
2710;SDS011;20721;47.402;8.550;2022-09-16T05:24:21;7.89;;;7.89;;
2710;SDS011;20721;47.402;8.550;2022-09-16T05:25:20;6.34;;;6.34;;
2710;SDS011;20721;47.402;8.550;2022-09-16T05:26:31;7.95;;;7.95;;
2710;SDS011;20721;47.402;8.550;2022-09-16T05:27:20;7.18;;;7.18;;
2710;SDS011;20721;47.402;8.550;2022-09-16T05:28:23;7.07;;;7.07;;
2710;SDS011;20721;47.402;8.550;2022-09-16T05:29:22;7.58;;;7.58;;
2710;SDS011;20721;47.402;8.550;2022-09-16T05:30:21;6.64;;;6.64;;
2710;SDS011;20721;47.402;8.550;2022-09-16T05:31:30;7.07;;;7.07;;
2710;SDS011;20721;47.402;8.550;2022-09-16T05:32:20;7.51;;;7.51;;
2710;SDS011;20721;47.402;8.550;2022-09-16T05:33:20;7.10;;;7.10;;
2710;SDS011;20721;47.402;8.550;2022-09-16T05:34:24;7.10;;;7.10;;
2710;SDS011;20721;47.402;8.550;2022-09-16T05:36:22;7.14;;;7.14;;
2710;SDS011;20721;47.402;8.550;2022-09-16T05:37:20;6.88;;;6.88;;
2710;SDS011;20721;47.402;8.550;2022-09-16T05:39:31;7.41;;;7.41;;
2710;SDS011;20721;47.402;8.550;2022-09-16T05:40:20;7.28;;;7.28;;
2710;SDS011;20721;47.402;8.550;2022-09-16T05:41:21;6.94;;;6.94;;
2710;SDS011;20721;47.402;8.550;2022-09-16T05:42:20;7.61;;;7.61;;
2710;SDS011;20721;47.402;8.550;2022-09-16T05:43:21;6.80;;;6.80;;
2710;SDS011;20721;47.402;8.550;2022-09-16T05:44:21;7.41;;;7.41;;
2710;SDS011;20721;47.402;8.550;2022-09-16T05:45:21;7.35;;;7.35;;
2710;SDS011;20721;47.402;8.550;2022-09-16T05:46:25;7.74;;;7.74;;
2710;SDS011;20721;47.402;8.550;2022-09-16T05:47:20;7.51;;;7.51;;
2710;SDS011;20721;47.402;8.550;2022-09-16T05:48:20;8.29;;;8.29;;
2710;SDS011;20721;47.402;8.550;2022-09-16T05:49:20;7.23;;;7.23;;
2710;SDS011;20721;47.402;8.550;2022-09-16T05:50:20;7.69;;;7.69;;
2710;SDS011;20721;47.402;8.550;2022-09-16T05:51:23;7.41;;;7.41;;
2710;SDS011;20721;47.402;8.550;2022-09-16T05:52:20;6.96;;;6.96;;
2710;SDS011;20721;47.402;8.550;2022-09-16T05:53:21;7.36;;;7.36;;
2710;SDS011;20721;47.402;8.550;2022-09-16T05:54:20;6.91;;;6.91;;
2710;SDS011;20721;47.402;8.550;2022-09-16T05:55:21;7.03;;;7.03;;
2710;SDS011;20721;47.402;8.550;2022-09-16T05:56:23;6.87;;;6.87;;
2710;SDS011;20721;47.402;8.550;2022-09-16T05:57:20;7.12;;;7.12;;
2710;SDS011;20721;47.402;8.550;2022-09-16T05:58:21;6.97;;;6.97;;
2710;SDS011;20721;47.402;8.550;2022-09-16T05:59:21;6.27;;;6.27;;
2710;SDS011;20721;47.402;8.550;2022-09-16T06:00:21;6.02;;;6.02;;
2710;SDS011;20721;47.402;8.550;2022-09-16T06:01:26;6.72;;;6.72;;
2710;SDS011;20721;47.402;8.550;2022-09-16T06:02:21;7.09;;;7.09;;
2710;SDS011;20721;47.402;8.550;2022-09-16T06:03:20;6.77;;;6.77;;
2710;SDS011;20721;47.402;8.550;2022-09-16T06:04:21;5.91;;;5.91;;
2710;SDS011;20721;47.402;8.550;2022-09-16T06:05:23;6.36;;;6.36;;
2710;SDS011;20721;47.402;8.550;2022-09-16T06:07:20;6.98;;;6.98;;
2710;SDS011;20721;47.402;8.550;2022-09-16T06:08:20;6.45;;;6.45;;
2710;SDS011;20721;47.402;8.550;2022-09-16T06:09:23;6.70;;;6.70;;
2710;SDS011;20721;47.402;8.550;2022-09-16T06:12:20;7.72;;;7.72;;
2710;SDS011;20721;47.402;8.550;2022-09-16T06:13:20;7.45;;;7.45;;
2710;SDS011;20721;47.402;8.550;2022-09-16T06:14:21;6.87;;;6.87;;
2710;SDS011;20721;47.402;8.550;2022-09-16T06:15:20;7.14;;;7.14;;
2710;SDS011;20721;47.402;8.550;2022-09-16T06:17:20;6.57;;;6.57;;
2710;SDS011;20721;47.402;8.550;2022-09-16T06:18:25;7.87;;;7.87;;
2710;SDS011;20721;47.402;8.550;2022-09-16T06:19:23;7.10;;;7.10;;
2710;SDS011;20721;47.402;8.550;2022-09-16T06:21:21;7.01;;;7.01;;
2710;SDS011;20721;47.402;8.550;2022-09-16T06:23:21;7.12;;;7.12;;
2710;SDS011;20721;47.402;8.550;2022-09-16T06:25:21;7.42;;;7.42;;
2710;SDS011;20721;47.402;8.550;2022-09-16T06:26:23;7.36;;;7.36;;
2710;SDS011;20721;47.402;8.550;2022-09-16T06:27:21;7.58;;;7.58;;
2710;SDS011;20721;47.402;8.550;2022-09-16T06:28:21;7.19;;;7.19;;
2710;SDS011;20721;47.402;8.550;2022-09-16T06:31:30;7.35;;;7.35;;
2710;SDS011;20721;47.402;8.550;2022-09-16T06:32:21;7.52;;;7.52;;
2710;SDS011;20721;47.402;8.550;2022-09-16T06:34:24;7.06;;;7.06;;
2710;SDS011;20721;47.402;8.550;2022-09-16T06:35:21;7.71;;;7.71;;
2710;SDS011;20721;47.402;8.550;2022-09-16T06:37:22;6.97;;;6.97;;
2710;SDS011;20721;47.402;8.550;2022-09-16T06:39:21;7.00;;;7.00;;
2710;SDS011;20721;47.402;8.550;2022-09-16T06:40:21;7.78;;;7.78;;
2710;SDS011;20721;47.402;8.550;2022-09-16T06:41:22;7.31;;;7.31;;
2710;SDS011;20721;47.402;8.550;2022-09-16T06:44:21;6.80;;;6.80;;
2710;SDS011;20721;47.402;8.550;2022-09-16T06:47:21;7.45;;;7.45;;
2710;SDS011;20721;47.402;8.550;2022-09-16T06:49:22;7.20;;;7.20;;
2710;SDS011;20721;47.402;8.550;2022-09-16T06:50:21;7.56;;;7.56;;
2710;SDS011;20721;47.402;8.550;2022-09-16T06:51:23;7.17;;;7.17;;
2710;SDS011;20721;47.402;8.550;2022-09-16T06:53:21;7.26;;;7.26;;
2710;SDS011;20721;47.402;8.550;2022-09-16T06:54:21;6.86;;;6.86;;
2710;SDS011;20721;47.402;8.550;2022-09-16T06:55:21;7.01;;;7.01;;
2710;SDS011;20721;47.402;8.550;2022-09-16T06:56:24;6.58;;;6.58;;
2710;SDS011;20721;47.402;8.550;2022-09-16T06:57:22;6.25;;;6.25;;
2710;SDS011;20721;47.402;8.550;2022-09-16T06:58:21;6.10;;;6.10;;
2710;SDS011;20721;47.402;8.550;2022-09-16T06:59:23;6.04;;;6.04;;
2710;SDS011;20721;47.402;8.550;2022-09-16T07:00:22;5.49;;;5.49;;
2710;SDS011;20721;47.402;8.550;2022-09-16T07:01:24;5.85;;;5.85;;
2710;SDS011;20721;47.402;8.550;2022-09-16T07:02:21;5.94;;;5.94;;
2710;SDS011;20721;47.402;8.550;2022-09-16T07:03:21;6.74;;;6.74;;
2710;SDS011;20721;47.402;8.550;2022-09-16T07:04:22;6.92;;;6.92;;
2710;SDS011;20721;47.402;8.550;2022-09-16T07:05:21;6.41;;;6.41;;
2710;SDS011;20721;47.402;8.550;2022-09-16T07:06:22;5.72;;;5.72;;
2710;SDS011;20721;47.402;8.550;2022-09-16T07:07:22;5.88;;;5.88;;
2710;SDS011;20721;47.402;8.550;2022-09-16T07:10:21;5.03;;;5.03;;
2710;SDS011;20721;47.402;8.550;2022-09-16T07:11:22;6.11;;;6.11;;
2710;SDS011;20721;47.402;8.550;2022-09-16T07:12:21;5.71;;;5.71;;
2710;SDS011;20721;47.402;8.550;2022-09-16T07:13:21;5.90;;;5.90;;
2710;SDS011;20721;47.402;8.550;2022-09-16T07:14:21;6.53;;;6.53;;
2710;SDS011;20721;47.402;8.550;2022-09-16T07:15:21;5.72;;;5.72;;
2710;SDS011;20721;47.402;8.550;2022-09-16T07:16:25;5.78;;;5.78;;
2710;SDS011;20721;47.402;8.550;2022-09-16T07:17:21;5.63;;;5.63;;
2710;SDS011;20721;47.402;8.550;2022-09-16T07:18:21;5.73;;;5.73;;
2710;SDS011;20721;47.402;8.550;2022-09-16T07:19:24;5.46;;;5.46;;
2710;SDS011;20721;47.402;8.550;2022-09-16T07:20:21;6.63;;;6.63;;
2710;SDS011;20721;47.402;8.550;2022-09-16T07:21:23;6.45;;;6.45;;
2710;SDS011;20721;47.402;8.550;2022-09-16T07:22:21;5.95;;;5.95;;
2710;SDS011;20721;47.402;8.550;2022-09-16T07:23:21;5.39;;;5.39;;
2710;SDS011;20721;47.402;8.550;2022-09-16T07:24:22;5.41;;;5.41;;
2710;SDS011;20721;47.402;8.550;2022-09-16T07:25:23;6.05;;;6.05;;
2710;SDS011;20721;47.402;8.550;2022-09-16T07:26:21;5.63;;;5.63;;
2710;SDS011;20721;47.402;8.550;2022-09-16T07:27:21;6.07;;;6.07;;
2710;SDS011;20721;47.402;8.550;2022-09-16T07:29:23;5.85;;;5.85;;
2710;SDS011;20721;47.402;8.550;2022-09-16T07:30:21;6.40;;;6.40;;
2710;SDS011;20721;47.402;8.550;2022-09-16T07:31:24;5.75;;;5.75;;
2710;SDS011;20721;47.402;8.550;2022-09-16T07:32:21;5.60;;;5.60;;
2710;SDS011;20721;47.402;8.550;2022-09-16T07:33:21;6.24;;;6.24;;
2710;SDS011;20721;47.402;8.550;2022-09-16T07:34:21;5.19;;;5.19;;